NCAR-RAP Real-Time Weather Data

Output produced by METARs form (23 June 2021  08:57 UTC)
found at http://weather.rap.ucar.edu/surface/
 
CYYN 230800Z AUTO 20010KT 9SM CLR 16/08 A2955 RMK SLP993 DENSITY ALT 3900FT
CYYN 230700Z AUTO 21010KT 9SM CLR 16/08 A2956 RMK SLP997 DENSITY ALT 3800FT
CYYN 230600Z AUTO 25007KT 9SM CLR 17/08 A2957 RMK SLP999 DENSITY ALT 4000FT
CYYN 230500Z AUTO 16004KT 9SM CLR 22/08 A2957 RMK SLP996 DENSITY ALT 4500FT
CYYN 230400Z AUTO 13006KT 9SM CLR 24/08 A2956 RMK SLP994 DENSITY ALT 4700FT
CYYN 230300Z AUTO 11005KT 9SM SCT140 26/09 A2956 RMK SLP992 DENSITY ALT 5000FT
CYYN 230243Z AUTO 10003KT 6SM HZ CLR 26/08 A2956 RMK SLP988 DENSITY ALT 5000FT
CYYN 230237Z AUTO 10003KT 5SM HZ FEW110 26/08 A2956 RMK SLP988 DENSITY ALT 5100FT
CYYN 230200Z AUTO 08003KT 9SM SCT110 SCT140 29/08 A2955 RMK SLP990 DENSITY ALT 5300FT
CYYN 230100Z AUTO 34003KT 330V100 9SM FEW120 29/06 A2956 RMK SLP994 DENSITY ALT 5300FT
CYYN 230000Z AUTO VRB02KT 9SM CLR 29/07 A2957 RMK SLP003 DENSITY ALT 5300FT
CYYN 222300Z AUTO 25003KT 160V310 9SM CLR 29/06 A2960 RMK SLP012 DENSITY ALT 5300FT
CYYN 222200Z AUTO 31008G15KT 240V330 9SM CLR 29/07 A2962 RMK SLP018 DENSITY ALT 5300FT
CYYN 222100Z AUTO 31006G15KT 260V340 9SM FEW120 30/06 A2963 RMK SLP022 DENSITY ALT 5400FT
 
 
CWLE 230800Z AUTO 24006KT 15/09 RMK AO1 SLP995 T01480092 56005
CWLE 230700Z AUTO 21008KT 15/09 RMK AO1 SLP996 T01460093 58004
CWLE 230600Z AUTO 23003KT 16/09 RMK AO1 SLP997 T01580087 50005
CWLE 230500Z AUTO 30006KT 17/08 RMK AO1 SLP001 T01690075 53006
CWLE 230400Z AUTO 30009KT 21/08 RMK AO1 SLP999 T02070084 53004
CWLE 230300Z AUTO 24006KT 22/12 RMK AO1 SLP993 T02210118 56009
CWLE 230200Z AUTO 24004KT 25/13 RMK AO1 SLP994 T02500128 56014
CWLE 230100Z AUTO 25005KT 27/11 RMK AO1 SLP995 T02670111 58018
CWLE 230000Z AUTO 24012KT 29/05 RMK AO1 PK WND 23017/2325 SLP004 T02860048 58015
CWLE 222300Z AUTO 26013G18KT 30/05 RMK AO1 PK WND 27019/2250 SLP009 T03020046 58013
CWLE 222200Z AUTO 27008G16KT 30/03 RMK AO1 SLP015 T03020027 56012
CWLE 222100Z AUTO 30006KT 30/03 RMK AO1 SLP019 T02960034 58011